sensor_id;sensor_type;location;lat;lon;timestamp;temperature;humidity
14397;DHT22;50653;47.810;13.022;2024-02-28T00:01:23;5.40;99.90
14397;DHT22;50653;47.810;13.022;2024-02-28T00:03:49;5.40;99.90
14397;DHT22;50653;47.810;13.022;2024-02-28T00:06:18;5.40;99.90
14397;DHT22;50653;47.810;13.022;2024-02-28T00:08:44;5.50;99.90
14397;DHT22;50653;47.810;13.022;2024-02-28T00:11:09;5.40;99.90
14397;DHT22;50653;47.810;13.022;2024-02-28T00:13:35;5.40;99.90
14397;DHT22;50653;47.810;13.022;2024-02-28T00:16:01;5.30;99.90
14397;DHT22;50653;47.810;13.022;2024-02-28T00:18:26;5.20;99.90
14397;DHT22;50653;47.810;13.022;2024-02-28T00:20:52;5.20;99.90
14397;DHT22;50653;47.810;13.022;2024-02-28T00:23:19;5.20;99.90
14397;DHT22;50653;47.810;13.022;2024-02-28T00:25:46;5.20;99.90
14397;DHT22;50653;47.810;13.022;2024-02-28T00:28:11;5.20;99.90
14397;DHT22;50653;47.810;13.022;2024-02-28T00:30:37;5.20;99.90
14397;DHT22;50653;47.810;13.022;2024-02-28T00:33:03;5.20;99.90
14397;DHT22;50653;47.810;13.022;2024-02-28T00:35:33;5.10;99.90
14397;DHT22;50653;47.810;13.022;2024-02-28T00:37:59;5.10;99.90
14397;DHT22;50653;47.810;13.022;2024-02-28T00:40:25;5.10;99.90
14397;DHT22;50653;47.810;13.022;2024-02-28T00:42:51;5.10;99.90
14397;DHT22;50653;47.810;13.022;2024-02-28T00:45:17;5.00;99.90
14397;DHT22;50653;47.810;13.022;2024-02-28T00:47:42;5.10;99.90
14397;DHT22;50653;47.810;13.022;2024-02-28T00:50:09;5.00;99.90
14397;DHT22;50653;47.810;13.022;2024-02-28T00:52:37;5.00;99.90
14397;DHT22;50653;47.810;13.022;2024-02-28T00:55:03;5.00;99.90
14397;DHT22;50653;47.810;13.022;2024-02-28T00:57:31;5.00;99.90
14397;DHT22;50653;47.810;13.022;2024-02-28T00:59:56;4.90;99.90
14397;DHT22;50653;47.810;13.022;2024-02-28T01:02:22;4.90;99.90
14397;DHT22;50653;47.810;13.022;2024-02-28T01:04:48;5.00;99.90
14397;DHT22;50653;47.810;13.022;2024-02-28T01:07:14;5.00;99.90
14397;DHT22;50653;47.810;13.022;2024-02-28T01:09:40;4.90;99.90
14397;DHT22;50653;47.810;13.022;2024-02-28T01:12:05;4.90;99.90
14397;DHT22;50653;47.810;13.022;2024-02-28T01:14:31;4.90;99.90
14397;DHT22;50653;47.810;13.022;2024-02-28T01:16:57;5.00;99.90
14397;DHT22;50653;47.810;13.022;2024-02-28T01:19:22;5.00;99.90
14397;DHT22;50653;47.810;13.022;2024-02-28T01:21:48;5.00;99.90
14397;DHT22;50653;47.810;13.022;2024-02-28T01:24:14;4.90;99.90
14397;DHT22;50653;47.810;13.022;2024-02-28T01:26:40;4.90;99.90
14397;DHT22;50653;47.810;13.022;2024-02-28T01:29:06;4.90;99.90
14397;DHT22;50653;47.810;13.022;2024-02-28T01:31:32;4.90;99.90
14397;DHT22;50653;47.810;13.022;2024-02-28T01:33:58;4.90;99.90
14397;DHT22;50653;47.810;13.022;2024-02-28T01:36:23;4.80;99.90
14397;DHT22;50653;47.810;13.022;2024-02-28T01:38:49;4.80;99.90
14397;DHT22;50653;47.810;13.022;2024-02-28T01:41:15;4.80;99.90
14397;DHT22;50653;47.810;13.022;2024-02-28T01:43:40;4.50;99.90
14397;DHT22;50653;47.810;13.022;2024-02-28T01:46:25;4.60;99.90
14397;DHT22;50653;47.810;13.022;2024-02-28T01:48:51;4.60;99.90
14397;DHT22;50653;47.810;13.022;2024-02-28T01:51:18;4.60;99.90
14397;DHT22;50653;47.810;13.022;2024-02-28T01:53:45;4.40;99.90
14397;DHT22;50653;47.810;13.022;2024-02-28T01:56:13;4.40;99.90
14397;DHT22;50653;47.810;13.022;2024-02-28T01:58:39;4.50;99.90
14397;DHT22;50653;47.810;13.022;2024-02-28T02:01:05;4.60;99.90
14397;DHT22;50653;47.810;13.022;2024-02-28T02:03:32;4.70;99.90
14397;DHT22;50653;47.810;13.022;2024-02-28T02:06:02;4.70;99.90
14397;DHT22;50653;47.810;13.022;2024-02-28T02:08:27;4.80;99.90
14397;DHT22;50653;47.810;13.022;2024-02-28T02:10:53;4.80;99.90
14397;DHT22;50653;47.810;13.022;2024-02-28T02:13:19;4.80;99.90
14397;DHT22;50653;47.810;13.022;2024-02-28T02:15:44;4.80;99.90
14397;DHT22;50653;47.810;13.022;2024-02-28T02:18:10;4.80;99.90
14397;DHT22;50653;47.810;13.022;2024-02-28T02:20:38;4.80;99.90
14397;DHT22;50653;47.810;13.022;2024-02-28T02:23:06;4.80;99.90
14397;DHT22;50653;47.810;13.022;2024-02-28T02:25:32;4.80;99.90
14397;DHT22;50653;47.810;13.022;2024-02-28T02:27:57;4.70;99.90
14397;DHT22;50653;47.810;13.022;2024-02-28T02:30:23;4.70;99.90
14397;DHT22;50653;47.810;13.022;2024-02-28T02:32:49;4.60;99.90
14397;DHT22;50653;47.810;13.022;2024-02-28T02:35:15;4.40;99.90
14397;DHT22;50653;47.810;13.022;2024-02-28T02:37:44;4.30;99.90
14397;DHT22;50653;47.810;13.022;2024-02-28T02:40:15;4.40;99.90
14397;DHT22;50653;47.810;13.022;2024-02-28T02:42:41;4.50;99.90
14397;DHT22;50653;47.810;13.022;2024-02-28T02:45:07;4.40;99.90
14397;DHT22;50653;47.810;13.022;2024-02-28T02:47:32;4.40;99.90
14397;DHT22;50653;47.810;13.022;2024-02-28T02:49:58;4.50;99.90
14397;DHT22;50653;47.810;13.022;2024-02-28T02:52:24;4.50;99.90
14397;DHT22;50653;47.810;13.022;2024-02-28T02:54:49;4.40;99.90
14397;DHT22;50653;47.810;13.022;2024-02-28T02:57:15;4.50;99.90
14397;DHT22;50653;47.810;13.022;2024-02-28T02:59:41;4.40;99.90
14397;DHT22;50653;47.810;13.022;2024-02-28T03:16:55;4.40;99.90
14397;DHT22;50653;47.810;13.022;2024-02-28T03:19:20;4.40;99.90
14397;DHT22;50653;47.810;13.022;2024-02-28T03:21:46;4.30;99.90
14397;DHT22;50653;47.810;13.022;2024-02-28T03:24:12;4.20;99.90
14397;DHT22;50653;47.810;13.022;2024-02-28T03:26:37;4.10;99.90
14397;DHT22;50653;47.810;13.022;2024-02-28T03:29:03;4.30;99.90
14397;DHT22;50653;47.810;13.022;2024-02-28T03:31:29;4.30;99.90
14397;DHT22;50653;47.810;13.022;2024-02-28T03:33:54;4.30;99.90
14397;DHT22;50653;47.810;13.022;2024-02-28T03:36:20;4.40;99.90
14397;DHT22;50653;47.810;13.022;2024-02-28T03:38:46;4.40;99.90
14397;DHT22;50653;47.810;13.022;2024-02-28T03:41:12;4.50;99.90
14397;DHT22;50653;47.810;13.022;2024-02-28T03:43:37;4.50;99.90
14397;DHT22;50653;47.810;13.022;2024-02-28T03:46:03;4.60;99.90
14397;DHT22;50653;47.810;13.022;2024-02-28T03:48:29;4.60;99.90
14397;DHT22;50653;47.810;13.022;2024-02-28T03:50:54;4.70;99.90
14397;DHT22;50653;47.810;13.022;2024-02-28T03:53:20;4.70;99.90
14397;DHT22;50653;47.810;13.022;2024-02-28T03:55:46;4.80;99.90
14397;DHT22;50653;47.810;13.022;2024-02-28T03:58:12;4.80;99.90
14397;DHT22;50653;47.810;13.022;2024-02-28T04:00:38;4.80;99.90
14397;DHT22;50653;47.810;13.022;2024-02-28T04:03:05;4.70;99.90
14397;DHT22;50653;47.810;13.022;2024-02-28T04:05:31;4.70;99.90
14397;DHT22;50653;47.810;13.022;2024-02-28T04:07:57;4.70;99.90
14397;DHT22;50653;47.810;13.022;2024-02-28T04:10:22;4.80;99.90
14397;DHT22;50653;47.810;13.022;2024-02-28T04:12:48;4.80;99.90
14397;DHT22;50653;47.810;13.022;2024-02-28T04:15:14;4.70;99.90
14397;DHT22;50653;47.810;13.022;2024-02-28T04:17:40;4.60;99.90
14397;DHT22;50653;47.810;13.022;2024-02-28T04:20:10;4.70;99.90
14397;DHT22;50653;47.810;13.022;2024-02-28T04:22:36;4.80;99.90
14397;DHT22;50653;47.810;13.022;2024-02-28T04:25:03;4.90;99.90
14397;DHT22;50653;47.810;13.022;2024-02-28T04:27:28;4.80;99.90
14397;DHT22;50653;47.810;13.022;2024-02-28T04:29:54;4.70;99.90
14397;DHT22;50653;47.810;13.022;2024-02-28T04:32:20;4.70;99.90
14397;DHT22;50653;47.810;13.022;2024-02-28T04:34:45;4.70;99.90
14397;DHT22;50653;47.810;13.022;2024-02-28T04:37:11;4.80;99.90
14397;DHT22;50653;47.810;13.022;2024-02-28T04:39:37;4.90;99.90
14397;DHT22;50653;47.810;13.022;2024-02-28T04:42:02;4.90;99.90
14397;DHT22;50653;47.810;13.022;2024-02-28T04:44:28;4.90;99.90
14397;DHT22;50653;47.810;13.022;2024-02-28T04:46:54;4.90;99.90
14397;DHT22;50653;47.810;13.022;2024-02-28T04:49:19;5.00;99.90
14397;DHT22;50653;47.810;13.022;2024-02-28T04:51:45;5.00;99.90
14397;DHT22;50653;47.810;13.022;2024-02-28T04:54:11;5.00;99.90
14397;DHT22;50653;47.810;13.022;2024-02-28T04:56:43;4.90;99.90
14397;DHT22;50653;47.810;13.022;2024-02-28T04:59:11;4.90;99.90
14397;DHT22;50653;47.810;13.022;2024-02-28T05:01:36;5.00;99.90
14397;DHT22;50653;47.810;13.022;2024-02-28T05:04:07;5.00;99.90
14397;DHT22;50653;47.810;13.022;2024-02-28T05:06:34;5.10;99.90
14397;DHT22;50653;47.810;13.022;2024-02-28T05:08:59;5.00;99.90
14397;DHT22;50653;47.810;13.022;2024-02-28T05:11:25;5.10;99.90
14397;DHT22;50653;47.810;13.022;2024-02-28T05:13:51;5.20;99.90
14397;DHT22;50653;47.810;13.022;2024-02-28T05:16:16;5.20;99.90
14397;DHT22;50653;47.810;13.022;2024-02-28T05:18:44;5.20;99.90
14397;DHT22;50653;47.810;13.022;2024-02-28T05:21:11;5.30;99.90
14397;DHT22;50653;47.810;13.022;2024-02-28T05:23:36;5.10;99.90
14397;DHT22;50653;47.810;13.022;2024-02-28T05:26:02;5.10;99.90
14397;DHT22;50653;47.810;13.022;2024-02-28T05:28:30;5.10;99.90
14397;DHT22;50653;47.810;13.022;2024-02-28T05:30:56;5.20;99.90
14397;DHT22;50653;47.810;13.022;2024-02-28T05:33:22;5.30;99.90
14397;DHT22;50653;47.810;13.022;2024-02-28T05:35:48;5.20;99.90
14397;DHT22;50653;47.810;13.022;2024-02-28T05:38:14;5.10;99.90
14397;DHT22;50653;47.810;13.022;2024-02-28T05:40:41;5.20;99.90
14397;DHT22;50653;47.810;13.022;2024-02-28T05:43:07;5.30;99.90
14397;DHT22;50653;47.810;13.022;2024-02-28T05:45:32;5.30;99.90
14397;DHT22;50653;47.810;13.022;2024-02-28T05:47:59;5.30;99.90
14397;DHT22;50653;47.810;13.022;2024-02-28T05:50:24;5.20;99.90
14397;DHT22;50653;47.810;13.022;2024-02-28T05:52:50;5.20;99.90
14397;DHT22;50653;47.810;13.022;2024-02-28T05:55:17;5.20;99.90
14397;DHT22;50653;47.810;13.022;2024-02-28T05:57:42;5.30;99.90
14397;DHT22;50653;47.810;13.022;2024-02-28T06:00:08;5.30;99.90
14397;DHT22;50653;47.810;13.022;2024-02-28T06:02:39;5.30;99.90
14397;DHT22;50653;47.810;13.022;2024-02-28T06:05:06;5.30;99.90
14397;DHT22;50653;47.810;13.022;2024-02-28T06:07:32;5.20;99.90
14397;DHT22;50653;47.810;13.022;2024-02-28T06:09:57;5.20;99.90
14397;DHT22;50653;47.810;13.022;2024-02-28T06:12:23;5.20;99.90
14397;DHT22;50653;47.810;13.022;2024-02-28T06:14:49;5.20;99.90
14397;DHT22;50653;47.810;13.022;2024-02-28T06:17:15;5.20;99.90
14397;DHT22;50653;47.810;13.022;2024-02-28T06:19:40;5.10;99.90
14397;DHT22;50653;47.810;13.022;2024-02-28T06:22:06;5.20;99.90
14397;DHT22;50653;47.810;13.022;2024-02-28T06:24:36;5.20;99.90
14397;DHT22;50653;47.810;13.022;2024-02-28T06:27:01;5.30;99.90
14397;DHT22;50653;47.810;13.022;2024-02-28T06:29:27;5.40;99.90
14397;DHT22;50653;47.810;13.022;2024-02-28T06:31:53;5.40;99.90
14397;DHT22;50653;47.810;13.022;2024-02-28T06:34:21;5.50;99.90
14397;DHT22;50653;47.810;13.022;2024-02-28T06:36:48;5.50;99.90
14397;DHT22;50653;47.810;13.022;2024-02-28T06:39:13;5.60;99.90
14397;DHT22;50653;47.810;13.022;2024-02-28T06:41:40;5.60;99.90
14397;DHT22;50653;47.810;13.022;2024-02-28T06:44:06;5.60;99.90
14397;DHT22;50653;47.810;13.022;2024-02-28T06:46:33;5.60;99.90
14397;DHT22;50653;47.810;13.022;2024-02-28T06:48:59;5.70;99.90
14397;DHT22;50653;47.810;13.022;2024-02-28T06:51:24;5.70;99.90
14397;DHT22;50653;47.810;13.022;2024-02-28T06:53:50;5.80;99.90
14397;DHT22;50653;47.810;13.022;2024-02-28T06:56:15;5.80;99.90
14397;DHT22;50653;47.810;13.022;2024-02-28T06:58:41;5.80;99.90
14397;DHT22;50653;47.810;13.022;2024-02-28T07:01:07;5.80;99.90
14397;DHT22;50653;47.810;13.022;2024-02-28T07:03:32;5.80;99.90
14397;DHT22;50653;47.810;13.022;2024-02-28T07:05:58;5.80;99.90
14397;DHT22;50653;47.810;13.022;2024-02-28T07:08:24;5.90;99.90
14397;DHT22;50653;47.810;13.022;2024-02-28T07:10:50;5.90;99.90
14397;DHT22;50653;47.810;13.022;2024-02-28T07:13:20;6.00;99.90
14397;DHT22;50653;47.810;13.022;2024-02-28T07:15:47;6.00;99.90
14397;DHT22;50653;47.810;13.022;2024-02-28T07:18:12;5.80;99.90
14397;DHT22;50653;47.810;13.022;2024-02-28T07:20:38;5.70;99.90
14397;DHT22;50653;47.810;13.022;2024-02-28T07:23:04;5.80;99.90
14397;DHT22;50653;47.810;13.022;2024-02-28T07:25:30;5.90;99.90
14397;DHT22;50653;47.810;13.022;2024-02-28T07:27:58;6.00;99.90
14397;DHT22;50653;47.810;13.022;2024-02-28T07:30:25;6.00;99.90
14397;DHT22;50653;47.810;13.022;2024-02-28T07:32:50;6.10;99.90
14397;DHT22;50653;47.810;13.022;2024-02-28T07:35:16;6.10;99.90
14397;DHT22;50653;47.810;13.022;2024-02-28T07:37:42;6.00;99.90
14397;DHT22;50653;47.810;13.022;2024-02-28T07:40:08;6.00;99.90
14397;DHT22;50653;47.810;13.022;2024-02-28T07:42:34;6.10;99.90
14397;DHT22;50653;47.810;13.022;2024-02-28T07:45:00;6.10;99.90
14397;DHT22;50653;47.810;13.022;2024-02-28T07:47:26;6.10;99.90
14397;DHT22;50653;47.810;13.022;2024-02-28T07:49:52;6.20;99.90
14397;DHT22;50653;47.810;13.022;2024-02-28T07:52:19;6.20;99.90
14397;DHT22;50653;47.810;13.022;2024-02-28T07:54:45;6.30;99.90
14397;DHT22;50653;47.810;13.022;2024-02-28T07:57:11;6.20;99.90
14397;DHT22;50653;47.810;13.022;2024-02-28T07:59:41;6.20;99.90
14397;DHT22;50653;47.810;13.022;2024-02-28T08:02:07;6.20;99.90
14397;DHT22;50653;47.810;13.022;2024-02-28T08:04:33;6.30;99.90
14397;DHT22;50653;47.810;13.022;2024-02-28T08:07:00;6.20;99.90
14397;DHT22;50653;47.810;13.022;2024-02-28T08:09:25;6.20;99.90
14397;DHT22;50653;47.810;13.022;2024-02-28T08:11:51;6.30;99.90
14397;DHT22;50653;47.810;13.022;2024-02-28T08:14:17;6.20;99.90
14397;DHT22;50653;47.810;13.022;2024-02-28T08:16:43;6.30;99.90
14397;DHT22;50653;47.810;13.022;2024-02-28T08:19:09;6.30;99.90
14397;DHT22;50653;47.810;13.022;2024-02-28T08:21:34;6.30;99.90
14397;DHT22;50653;47.810;13.022;2024-02-28T08:24:00;6.40;99.90
14397;DHT22;50653;47.810;13.022;2024-02-28T08:26:30;6.40;99.90
14397;DHT22;50653;47.810;13.022;2024-02-28T08:28:56;6.30;99.90
14397;DHT22;50653;47.810;13.022;2024-02-28T08:31:22;6.40;99.90
14397;DHT22;50653;47.810;13.022;2024-02-28T08:33:47;6.50;99.90
14397;DHT22;50653;47.810;13.022;2024-02-28T08:36:14;6.50;99.90
14397;DHT22;50653;47.810;13.022;2024-02-28T08:38:41;6.50;99.90
14397;DHT22;50653;47.810;13.022;2024-02-28T08:41:07;6.40;99.90
14397;DHT22;50653;47.810;13.022;2024-02-28T08:43:37;6.40;99.90
14397;DHT22;50653;47.810;13.022;2024-02-28T08:46:03;6.40;99.90
14397;DHT22;50653;47.810;13.022;2024-02-28T08:48:29;6.40;99.90
14397;DHT22;50653;47.810;13.022;2024-02-28T08:50:54;6.40;99.90
14397;DHT22;50653;47.810;13.022;2024-02-28T08:53:20;6.50;99.90
14397;DHT22;50653;47.810;13.022;2024-02-28T08:55:46;6.50;99.90
14397;DHT22;50653;47.810;13.022;2024-02-28T08:58:12;6.50;99.90
14397;DHT22;50653;47.810;13.022;2024-02-28T09:00:37;6.60;99.90
14397;DHT22;50653;47.810;13.022;2024-02-28T09:03:04;6.60;99.90
14397;DHT22;50653;47.810;13.022;2024-02-28T09:05:30;6.60;99.90
14397;DHT22;50653;47.810;13.022;2024-02-28T09:07:55;6.60;99.90
14397;DHT22;50653;47.810;13.022;2024-02-28T09:10:23;6.60;99.90
14397;DHT22;50653;47.810;13.022;2024-02-28T09:12:52;6.60;99.90
14397;DHT22;50653;47.810;13.022;2024-02-28T09:15:18;6.60;99.90
14397;DHT22;50653;47.810;13.022;2024-02-28T09:17:44;6.60;99.90
14397;DHT22;50653;47.810;13.022;2024-02-28T09:20:10;6.70;99.90
14397;DHT22;50653;47.810;13.022;2024-02-28T09:22:37;6.70;99.90
14397;DHT22;50653;47.810;13.022;2024-02-28T09:25:03;6.80;99.90
14397;DHT22;50653;47.810;13.022;2024-02-28T09:27:30;6.80;99.90
14397;DHT22;50653;47.810;13.022;2024-02-28T09:29:56;6.70;99.90
14397;DHT22;50653;47.810;13.022;2024-02-28T09:32:22;6.80;99.90
14397;DHT22;50653;47.810;13.022;2024-02-28T09:34:48;6.80;99.90
14397;DHT22;50653;47.810;13.022;2024-02-28T09:37:14;6.80;99.90
14397;DHT22;50653;47.810;13.022;2024-02-28T09:39:43;6.80;99.90
14397;DHT22;50653;47.810;13.022;2024-02-28T09:42:09;6.80;99.90
14397;DHT22;50653;47.810;13.022;2024-02-28T09:44:36;6.80;99.90
14397;DHT22;50653;47.810;13.022;2024-02-28T09:47:03;6.90;99.90
14397;DHT22;50653;47.810;13.022;2024-02-28T09:49:31;6.90;99.90
14397;DHT22;50653;47.810;13.022;2024-02-28T09:51:58;6.90;99.90
14397;DHT22;50653;47.810;13.022;2024-02-28T09:54:25;7.00;99.90
14397;DHT22;50653;47.810;13.022;2024-02-28T09:56:51;7.00;99.90
14397;DHT22;50653;47.810;13.022;2024-02-28T09:59:20;7.00;99.90
14397;DHT22;50653;47.810;13.022;2024-02-28T10:02:07;7.10;99.90
14397;DHT22;50653;47.810;13.022;2024-02-28T10:04:35;6.90;99.90
14397;DHT22;50653;47.810;13.022;2024-02-28T10:07:14;6.80;99.90
14397;DHT22;50653;47.810;13.022;2024-02-28T10:09:41;6.90;99.90
14397;DHT22;50653;47.810;13.022;2024-02-28T10:12:07;7.10;99.90
14397;DHT22;50653;47.810;13.022;2024-02-28T10:14:33;7.10;99.90
14397;DHT22;50653;47.810;13.022;2024-02-28T10:16:59;7.10;99.90
14397;DHT22;50653;47.810;13.022;2024-02-28T10:19:25;6.90;99.90
14397;DHT22;50653;47.810;13.022;2024-02-28T10:21:51;7.00;99.90
14397;DHT22;50653;47.810;13.022;2024-02-28T10:24:16;7.10;99.90
14397;DHT22;50653;47.810;13.022;2024-02-28T10:26:46;7.20;99.90
14397;DHT22;50653;47.810;13.022;2024-02-28T10:29:22;7.20;99.90
14397;DHT22;50653;47.810;13.022;2024-02-28T10:31:49;7.30;99.90
14397;DHT22;50653;47.810;13.022;2024-02-28T10:34:17;7.40;99.90
14397;DHT22;50653;47.810;13.022;2024-02-28T10:36:44;7.40;99.90
14397;DHT22;50653;47.810;13.022;2024-02-28T10:39:11;7.40;99.90
14397;DHT22;50653;47.810;13.022;2024-02-28T10:41:38;7.60;99.90
14397;DHT22;50653;47.810;13.022;2024-02-28T10:44:05;7.60;99.90
14397;DHT22;50653;47.810;13.022;2024-02-28T10:46:31;7.60;99.90
14397;DHT22;50653;47.810;13.022;2024-02-28T10:48:57;7.70;99.90
14397;DHT22;50653;47.810;13.022;2024-02-28T10:51:24;7.60;99.90
14397;DHT22;50653;47.810;13.022;2024-02-28T10:54:11;7.60;99.90
14397;DHT22;50653;47.810;13.022;2024-02-28T10:56:40;7.50;99.90
14397;DHT22;50653;47.810;13.022;2024-02-28T10:59:07;7.40;99.90
14397;DHT22;50653;47.810;13.022;2024-02-28T11:01:37;7.40;99.90
14397;DHT22;50653;47.810;13.022;2024-02-28T11:04:05;7.50;99.90
14397;DHT22;50653;47.810;13.022;2024-02-28T11:06:31;7.60;99.90
14397;DHT22;50653;47.810;13.022;2024-02-28T11:09:00;7.70;99.90
14397;DHT22;50653;47.810;13.022;2024-02-28T11:11:32;7.70;99.90
14397;DHT22;50653;47.810;13.022;2024-02-28T11:13:59;7.80;99.90
14397;DHT22;50653;47.810;13.022;2024-02-28T11:16:32;7.70;99.90
14397;DHT22;50653;47.810;13.022;2024-02-28T11:18:59;7.60;99.90
14397;DHT22;50653;47.810;13.022;2024-02-28T11:21:25;7.50;99.90
14397;DHT22;50653;47.810;13.022;2024-02-28T11:23:52;7.50;99.90
14397;DHT22;50653;47.810;13.022;2024-02-28T11:26:18;7.50;99.90
14397;DHT22;50653;47.810;13.022;2024-02-28T11:28:44;7.50;99.90
14397;DHT22;50653;47.810;13.022;2024-02-28T11:31:09;7.40;99.90
14397;DHT22;50653;47.810;13.022;2024-02-28T11:33:36;7.40;99.90
14397;DHT22;50653;47.810;13.022;2024-02-28T11:36:02;7.50;99.90
14397;DHT22;50653;47.810;13.022;2024-02-28T11:38:29;7.50;99.90
14397;DHT22;50653;47.810;13.022;2024-02-28T11:40:55;7.60;99.90
14397;DHT22;50653;47.810;13.022;2024-02-28T11:43:21;7.70;99.90
14397;DHT22;50653;47.810;13.022;2024-02-28T11:45:47;7.60;99.90
14397;DHT22;50653;47.810;13.022;2024-02-28T11:48:14;7.60;99.90
14397;DHT22;50653;47.810;13.022;2024-02-28T11:50:39;7.50;99.90
14397;DHT22;50653;47.810;13.022;2024-02-28T11:53:09;7.50;99.90
14397;DHT22;50653;47.810;13.022;2024-02-28T11:55:35;7.40;99.90
14397;DHT22;50653;47.810;13.022;2024-02-28T11:58:01;7.40;99.90
14397;DHT22;50653;47.810;13.022;2024-02-28T12:00:27;7.60;99.90
14397;DHT22;50653;47.810;13.022;2024-02-28T12:03:03;7.70;99.90
14397;DHT22;50653;47.810;13.022;2024-02-28T12:05:29;7.90;99.90
14397;DHT22;50653;47.810;13.022;2024-02-28T12:07:55;7.90;99.90
14397;DHT22;50653;47.810;13.022;2024-02-28T12:10:22;7.90;99.90
14397;DHT22;50653;47.810;13.022;2024-02-28T12:12:48;7.90;99.90
14397;DHT22;50653;47.810;13.022;2024-02-28T12:15:15;7.90;99.90
14397;DHT22;50653;47.810;13.022;2024-02-28T12:17:43;7.80;99.90
14397;DHT22;50653;47.810;13.022;2024-02-28T12:20:09;7.70;99.90
14397;DHT22;50653;47.810;13.022;2024-02-28T12:22:35;7.70;99.90
14397;DHT22;50653;47.810;13.022;2024-02-28T12:25:00;7.80;99.90
14397;DHT22;50653;47.810;13.022;2024-02-28T12:27:30;7.80;99.90
14397;DHT22;50653;47.810;13.022;2024-02-28T12:29:56;7.70;99.90
14397;DHT22;50653;47.810;13.022;2024-02-28T12:32:22;7.80;99.90
14397;DHT22;50653;47.810;13.022;2024-02-28T12:34:48;7.80;99.90
14397;DHT22;50653;47.810;13.022;2024-02-28T12:37:13;7.70;99.90
14397;DHT22;50653;47.810;13.022;2024-02-28T12:39:39;7.70;99.90
14397;DHT22;50653;47.810;13.022;2024-02-28T12:42:07;7.50;99.90
14397;DHT22;50653;47.810;13.022;2024-02-28T12:44:32;7.70;99.90
14397;DHT22;50653;47.810;13.022;2024-02-28T12:46:58;7.80;99.90
14397;DHT22;50653;47.810;13.022;2024-02-28T12:49:24;7.80;99.90
14397;DHT22;50653;47.810;13.022;2024-02-28T12:51:49;7.80;99.90
14397;DHT22;50653;47.810;13.022;2024-02-28T12:54:17;7.80;99.90
14397;DHT22;50653;47.810;13.022;2024-02-28T12:56:45;7.80;99.90
14397;DHT22;50653;47.810;13.022;2024-02-28T12:59:11;7.70;99.90
14397;DHT22;50653;47.810;13.022;2024-02-28T13:01:37;7.70;99.90
14397;DHT22;50653;47.810;13.022;2024-02-28T13:04:03;7.50;99.90
14397;DHT22;50653;47.810;13.022;2024-02-28T13:06:29;7.40;99.90
14397;DHT22;50653;47.810;13.022;2024-02-28T13:08:55;7.50;99.90
14397;DHT22;50653;47.810;13.022;2024-02-28T13:11:24;7.40;99.90
14397;DHT22;50653;47.810;13.022;2024-02-28T13:13:51;7.40;99.90
14397;DHT22;50653;47.810;13.022;2024-02-28T13:16:18;7.40;99.90
14397;DHT22;50653;47.810;13.022;2024-02-28T13:18:44;7.50;99.90
14397;DHT22;50653;47.810;13.022;2024-02-28T13:21:10;7.50;99.90
14397;DHT22;50653;47.810;13.022;2024-02-28T13:23:36;7.60;99.90
14397;DHT22;50653;47.810;13.022;2024-02-28T13:26:06;7.60;99.90
14397;DHT22;50653;47.810;13.022;2024-02-28T13:28:33;7.60;99.90
14397;DHT22;50653;47.810;13.022;2024-02-28T13:31:00;7.60;99.90
14397;DHT22;50653;47.810;13.022;2024-02-28T13:33:26;7.60;99.90
14397;DHT22;50653;47.810;13.022;2024-02-28T13:35:52;7.50;99.90
14397;DHT22;50653;47.810;13.022;2024-02-28T13:38:19;7.60;99.90
14397;DHT22;50653;47.810;13.022;2024-02-28T13:40:48;7.60;99.90
14397;DHT22;50653;47.810;13.022;2024-02-28T13:43:15;7.50;99.90
14397;DHT22;50653;47.810;13.022;2024-02-28T13:45:47;7.40;99.90
14397;DHT22;50653;47.810;13.022;2024-02-28T13:48:22;7.50;99.90
14397;DHT22;50653;47.810;13.022;2024-02-28T13:50:50;7.60;99.90
14397;DHT22;50653;47.810;13.022;2024-02-28T13:53:15;7.60;99.90
14397;DHT22;50653;47.810;13.022;2024-02-28T13:55:45;7.60;99.90
14397;DHT22;50653;47.810;13.022;2024-02-28T13:58:15;7.70;99.90
14397;DHT22;50653;47.810;13.022;2024-02-28T14:00:47;7.80;99.90
14397;DHT22;50653;47.810;13.022;2024-02-28T14:03:13;7.90;99.90
14397;DHT22;50653;47.810;13.022;2024-02-28T14:05:39;7.90;99.90
14397;DHT22;50653;47.810;13.022;2024-02-28T14:08:05;7.90;99.90
14397;DHT22;50653;47.810;13.022;2024-02-28T14:10:33;7.80;99.90
14397;DHT22;50653;47.810;13.022;2024-02-28T14:12:59;7.70;99.90
14397;DHT22;50653;47.810;13.022;2024-02-28T14:15:25;7.80;99.90
14397;DHT22;50653;47.810;13.022;2024-02-28T14:17:51;7.90;99.90
14397;DHT22;50653;47.810;13.022;2024-02-28T14:20:17;7.90;99.90
14397;DHT22;50653;47.810;13.022;2024-02-28T14:22:43;7.90;99.90
14397;DHT22;50653;47.810;13.022;2024-02-28T14:25:13;8.00;99.90
14397;DHT22;50653;47.810;13.022;2024-02-28T14:27:40;7.80;99.90
14397;DHT22;50653;47.810;13.022;2024-02-28T14:30:07;7.80;99.90
14397;DHT22;50653;47.810;13.022;2024-02-28T14:32:35;7.80;99.90
14397;DHT22;50653;47.810;13.022;2024-02-28T14:35:01;7.70;99.90
14397;DHT22;50653;47.810;13.022;2024-02-28T14:37:27;7.70;99.90
14397;DHT22;50653;47.810;13.022;2024-02-28T14:39:53;7.80;99.90
14397;DHT22;50653;47.810;13.022;2024-02-28T14:42:20;7.80;99.90
14397;DHT22;50653;47.810;13.022;2024-02-28T14:44:45;7.90;99.90
14397;DHT22;50653;47.810;13.022;2024-02-28T14:47:11;8.00;99.90
14397;DHT22;50653;47.810;13.022;2024-02-28T14:49:37;8.00;99.90
14397;DHT22;50653;47.810;13.022;2024-02-28T14:52:03;8.00;99.90
14397;DHT22;50653;47.810;13.022;2024-02-28T14:54:29;7.90;99.90
14397;DHT22;50653;47.810;13.022;2024-02-28T14:56:55;7.90;99.90
14397;DHT22;50653;47.810;13.022;2024-02-28T14:59:20;7.90;99.90
14397;DHT22;50653;47.810;13.022;2024-02-28T15:01:49;7.90;99.90
14397;DHT22;50653;47.810;13.022;2024-02-28T15:04:15;7.90;99.90
14397;DHT22;50653;47.810;13.022;2024-02-28T15:06:41;7.80;99.90
14397;DHT22;50653;47.810;13.022;2024-02-28T15:09:07;7.90;99.90
14397;DHT22;50653;47.810;13.022;2024-02-28T15:11:34;7.70;99.90
14397;DHT22;50653;47.810;13.022;2024-02-28T15:14:00;7.60;99.90
14397;DHT22;50653;47.810;13.022;2024-02-28T15:16:26;7.70;99.90
14397;DHT22;50653;47.810;13.022;2024-02-28T15:18:51;7.70;99.90
14397;DHT22;50653;47.810;13.022;2024-02-28T15:21:18;7.70;99.90
14397;DHT22;50653;47.810;13.022;2024-02-28T15:23:44;7.80;99.90
14397;DHT22;50653;47.810;13.022;2024-02-28T15:26:09;7.80;99.90
14397;DHT22;50653;47.810;13.022;2024-02-28T15:28:35;7.60;99.90
14397;DHT22;50653;47.810;13.022;2024-02-28T15:31:01;7.50;99.90
14397;DHT22;50653;47.810;13.022;2024-02-28T15:33:26;7.60;99.90
14397;DHT22;50653;47.810;13.022;2024-02-28T15:35:53;7.50;99.90
14397;DHT22;50653;47.810;13.022;2024-02-28T15:38:19;7.50;99.90
14397;DHT22;50653;47.810;13.022;2024-02-28T15:40:45;7.50;99.90